San Salvador de Jujuy, Argentina
Current Conditions -  °F | °C
As of 1:00 PM on Friday 21 Nov 2014 (Local Time) from SASJ Reporting Station
Broken Clouds Broken Clouds  
Wind Chill: 75°   Ceiling: 8000
Heat Index: 75°   Visibility: 6mi
Dew Point: 61°   Wind: 14mph
Humidity: 61%   Direction: 180°S
Pressure: 29.94"   Gusts: NA
Location:  24.2°S, 65.3°W
Report Text: SASJ 211600Z 18012KT 9999 SCT020 BKN08024/16 Q1014
Loading
Personal Weather Stations






























Interactive Weather Map New forecast layout! Learn more

10-Day Weather Forecast

Advertisements
Track Severe Weather on mobile